Last 24 Hours

OV-Belmont 8000'

Hourly Data | America/Los_Angeles
as of 9/3/26 11:12 AM PDT
Date & Time Temp (°F) RH (%) Dew Pt (°F) Wet Bulb (°F) Wind Dir (°) Wind Spd (mph) Wind Gust (mph) WindChill (°F) Latest Rain (In) Daily Min Temp (°F) Daily Max Temp (°F) Daily Rain (In)
9/3/26 - 1100 43.1 77 36.6 39.8 SSE | 152 10.6 25.5 36.8 0.00 39.6 43.3 0.00
9/3/26 - 1000 41.8 72 33.6 37.6 SSE | 162 11.9 24.9 34.4 0.00 39.6 41.8 0.00
9/3/26 - 0900 40.7 68 31.0 36.1 SSE | 158 11.2 20.8 33.8 0.00 39.6 40.8 0.00
9/3/26 - 0800 40.3 61 27.9 34.7 SSE | 148 7.8 19.5 35.3 0.00 39.6 40.7 0.00
9/3/26 - 0700 40.1 48 21.9 32.5 SE | 146 8.1 24.5 35.4 0.00 39.6 40.7 0.00
9/3/26 - 0600 40.1 55 25.3 33.6 SSE | 149 8.8 24.5 34.8 0.00 39.6 40.7 0.00
9/3/26 - 0500 39.9 60 27.0 34.1 SSE | 154 9.2 20.4 34.1 0.00 39.6 40.7 0.00
9/3/26 - 0400 40.1 66 29.6 35.2 SSE | 154 9.7 24.1 34.6 0.00 39.9 40.7 0.00
9/3/26 - 0300 40.2 78 34.0 37.1 SE | 145 11.4 29.0 33.5 0.00 39.9 40.7 0.00
9/3/26 - 0200 40.2 79 34.2 37.2 SSE | 163 5.1 14.4 37.2 0.00 40.1 40.7 0.00
9/3/26 - 0100 40.4 83 35.8 38.1 SSE | 150 9.6 24.6 35.0 0.00 40.4 40.7 0.00
9/3/26 - 0000 40.4 81 35.2 37.8 SSE | 148 10.6 23.0 34.2 0.00 36.3 49.2 0.00
9/2/26 - 2300 40.6 87 37.0 38.8 SSE | 156 12.3 23.0 33.5 0.00 36.3 49.2 0.00
9/2/26 - 2200 40.5 85 36.3 38.4 SSE | 155 13.1 24.5 33.5 0.00 36.3 49.2 0.00
9/2/26 - 2100 41.1 82 36.2 38.6 SSE | 148 12.2 28.7 34.5 0.00 36.3 49.2 0.00
9/2/26 - 2000 41.3 85 37.2 39.2 SSE | 164 9.0 26.2 36.7 0.00 36.3 49.2 0.00
9/2/26 - 1900 42.2 81 36.8 39.4 S | 171 11.2 32.7 37.3 0.00 36.3 49.2 0.00
9/2/26 - 1800 44.3 76 37.3 40.6 S | 182 12.2 27.4 40.5 0.00 36.3 49.2 0.00
9/2/26 - 1700 46.4 67 36.1 41.1 SSW | 192 14.4 30.9 41.2 0.00 36.3 48.6 0.00
9/2/26 - 1600 46.6 64 35.2 40.9 S | 187 11.8 29.6 41.9 0.00 36.3 48.2 0.00
9/2/26 - 1500 47.5 61 34.9 41.0 S | 187 11.2 27.6 41.1 0.00 36.3 47.5 0.00
9/2/26 - 1400 46.0 67 35.7 40.7 S | 171 10.2 29.6 40.9 0.00 36.3 46.9 0.00
9/2/26 - 1300 45.2 68 35.5 40.2 S | 179 11.4 29.7 39.1 0.00 36.3 46.7 0.00
9/2/26 - 1200 44.3 72 35.7 39.9 S | 181 12.6 31.4 37.0 0.00 36.3 44.6 0.00
9/2/26 - 1100 42.8 73 34.6 38.7 S | 174 8.9 25.3 36.2 0.00 36.3 43.8 0.00
Max 47.5 87 37.3 41.1 - 14.4 32.7 41.9 0.00 40.4 49.2 0.00
Avg 42.2 72 33.6 38.1 - 10.6 25.7 36.5 0.00 - - -
Min 39.9 48 21.9 32.5 - 5.1 14.4 33.5 0.00 36.3 40.7 0.00
Total - - - - - - - - 0.00 - - -